Time;durP1;ratioP1;P1;durP2;ratioP2;P2;SDS_P1;SDS_P2;PMS_P1;PMS_P2;Temp;Humidity;BMP_temperature;BMP_pressure;BME280_temperature;BME280_humidity;BME280_pressure;Samples;Min_cycle;Max_cycle;Signal;HPM_P1;HPM_P2
2022/03/28 00:02:24;;;;;;;;;48.50;39.00;;;;;;;;5039132;28;45411;-75
2022/03/28 00:04:49;;;;;;;;;39.00;34.25;;;;;;;;5038510;28;45410;-75
2022/03/28 00:07:15;;;;;;;;;48.50;38.00;;;;;;;;5039019;28;45340;-75
2022/03/28 00:09:43;;;;;;;;;45.00;36.50;;;;;;;;5036369;28;45727;-75
2022/03/28 00:12:08;;;;;;;;;42.25;35.50;;;;;;;;5017769;28;45554;-75
2022/03/28 00:14:33;;;;;;;;;43.00;35.75;;;;;;;;5039292;28;45448;-75
2022/03/28 00:16:59;;;;;;;;;35.50;33.50;;;;;;;;5038700;28;45454;-75
2022/03/28 00:19:24;;;;;;;;;40.25;35.75;;;;;;;;5038215;28;45903;-75
2022/03/28 00:21:50;;;;;;;;;46.25;35.25;;;;;;;;5037774;28;45376;-74
2022/03/28 00:24:15;;;;;;;;;39.75;32.75;;;;;;;;5034584;28;45440;-75
2022/03/28 00:26:41;;;;;;;;;40.00;32.75;;;;;;;;5040590;28;45404;-76
2022/03/28 00:29:06;;;;;;;;;40.25;33.50;;;;;;;;5041689;28;45422;-76
2022/03/28 00:31:31;;;;;;;;;45.25;36.75;;;;;;;;5041684;28;45471;-76
2022/03/28 00:33:56;;;;;;;;;41.25;32.50;;;;;;;;5023556;28;45301;-76
2022/03/28 00:36:21;;;;;;;;;38.00;35.50;;;;;;;;5037454;28;45459;-75
2022/03/28 00:38:48;;;;;;;;;34.75;32.00;;;;;;;;5042530;28;46012;-75
2022/03/28 00:41:14;;;;;;;;;37.75;32.50;;;;;;;;5042044;28;45636;-75
2022/03/28 00:43:58;;;;;;;;;42.75;34.50;;;;;;;;5041978;28;45424;-75
2022/03/28 00:46:24;;;;;;;;;34.75;33.50;;;;;;;;5042588;28;45451;-75
2022/03/28 00:48:50;;;;;;;;;40.00;35.25;;;;;;;;5042567;28;45371;-75
2022/03/28 00:51:16;;;;;;;;;35.25;30.25;;;;;;;;5037935;28;45400;-75
2022/03/28 00:53:42;;;;;;;;;38.75;32.75;;;;;;;;5042363;28;45397;-76
2022/03/28 00:56:07;;;;;;;;;40.75;33.25;;;;;;;;5041343;28;45481;-75
2022/03/28 00:58:33;;;;;;;;;44.25;35.75;;;;;;;;5041361;28;46019;-75
2022/03/28 01:00:58;;;;;;;;;47.25;36.00;;;;;;;;5040774;28;45411;-76
2022/03/28 01:03:23;;;;;;;;;44.00;35.75;;;;;;;;5037357;28;45413;-76
2022/03/28 01:05:49;;;;;;;;;47.25;36.50;;;;;;;;5042045;28;45447;-76
2022/03/28 01:08:14;;;;;;;;;42.50;35.50;;;;;;;;5041013;28;45481;-74
2022/03/28 01:10:42;;;;;;;;;49.75;38.50;;;;;;;;5041304;28;45383;-74
2022/03/28 01:13:07;;;;;;;;;52.75;42.00;;;;;;;;5041663;28;45288;-74
2022/03/28 01:15:32;;;;;;;;;38.00;36.25;;;;;;;;5037925;28;45258;-73
2022/03/28 01:18:07;;;;;;;;;40.75;36.00;;;;;;;;5040098;28;46521;-74
2022/03/28 01:20:33;;;;;;;;;37.50;29.75;;;;;;;;5041721;28;45767;-76
2022/03/28 01:22:58;;;;;;;;;44.75;38.00;;;;;;;;5022994;28;45535;-73
2022/03/28 01:25:24;;;;;;;;;42.50;35.50;;;;;;;;5040740;28;45413;-76
2022/03/28 01:27:52;;;;;;;;;44.25;37.50;;;;;;;;5040165;28;46182;-76
2022/03/28 01:30:18;;;;;;;;;45.00;36.25;;;;;;;;5036095;28;45449;-76
2022/03/28 01:32:43;;;;;;;;;48.50;38.00;;;;;;;;5041646;28;45490;-76
2022/03/28 01:35:08;;;;;;;;;44.25;36.50;;;;;;;;5041114;28;45505;-75
2022/03/28 01:37:33;;;;;;;;;44.00;35.25;;;;;;;;5040600;28;46183;-75
2022/03/28 01:39:59;;;;;;;;;41.50;34.75;;;;;;;;5040800;28;45373;-76
2022/03/28 01:42:24;;;;;;;;;44.25;36.75;;;;;;;;5036977;28;45367;-76
2022/03/28 01:44:51;;;;;;;;;45.25;36.00;;;;;;;;5041002;28;45435;-75
2022/03/28 01:47:17;;;;;;;;;47.00;38.50;;;;;;;;5040581;28;46113;-76
2022/03/28 01:49:42;;;;;;;;;42.75;33.75;;;;;;;;5040321;28;45598;-76
2022/03/28 01:52:07;;;;;;;;;40.75;37.00;;;;;;;;5040666;28;45277;-76
2022/03/28 01:54:33;;;;;;;;;45.25;38.25;;;;;;;;5038399;28;45533;-76
2022/03/28 01:56:58;;;;;;;;;49.00;37.50;;;;;;;;5039376;28;46167;-76
2022/03/28 01:59:23;;;;;;;;;48.00;39.00;;;;;;;;5040929;28;45285;-74
2022/03/28 02:01:49;;;;;;;;;49.75;38.25;;;;;;;;5042205;28;45329;-76
2022/03/28 02:04:15;;;;;;;;;48.25;36.75;;;;;;;;5041867;28;45816;-76
2022/03/28 02:06:40;;;;;;;;;53.75;41.00;;;;;;;;5038423;28;46233;-76
2022/03/28 02:09:05;;;;;;;;;55.50;43.00;;;;;;;;5038392;28;45456;-76
2022/03/28 02:11:31;;;;;;;;;48.25;39.00;;;;;;;;5041053;28;45383;-75
2022/03/28 02:13:56;;;;;;;;;45.75;36.25;;;;;;;;5040123;28;45504;-76
2022/03/28 02:16:21;;;;;;;;;50.75;41.00;;;;;;;;5039884;28;45420;-75
2022/03/28 02:18:47;;;;;;;;;49.75;40.25;;;;;;;;5039101;28;45355;-75
2022/03/28 02:21:12;;;;;;;;;49.00;41.00;;;;;;;;5035895;28;45392;-75
2022/03/28 02:23:37;;;;;;;;;43.50;33.75;;;;;;;;5040758;28;45355;-75
2022/03/28 02:26:03;;;;;;;;;47.50;38.50;;;;;;;;5039574;28;46295;-75
2022/03/28 02:28:28;;;;;;;;;50.50;41.25;;;;;;;;5039548;28;45450;-75
2022/03/28 02:30:54;;;;;;;;;48.75;39.75;;;;;;;;5040084;28;45418;-75
2022/03/28 02:33:19;;;;;;;;;44.50;38.50;;;;;;;;5035987;28;45351;-75
2022/03/28 02:35:44;;;;;;;;;48.25;37.00;;;;;;;;5040191;28;46568;-75
2022/03/28 02:38:09;;;;;;;;;47.75;39.25;;;;;;;;5040064;28;45415;-75
2022/03/28 02:40:35;;;;;;;;;48.75;39.25;;;;;;;;5039891;28;45437;-74
2022/03/28 02:43:02;;;;;;;;;48.00;38.50;;;;;;;;5038782;28;45477;-74
2022/03/28 02:45:29;;;;;;;;;52.75;41.25;;;;;;;;5035679;28;46165;-73
2022/03/28 02:47:54;;;;;;;;;49.25;40.25;;;;;;;;5041207;28;45425;-74
2022/03/28 02:50:19;;;;;;;;;50.00;39.50;;;;;;;;5039283;28;45426;-73
2022/03/28 02:52:44;;;;;;;;;49.50;39.75;;;;;;;;5043067;28;45293;-76
2022/03/28 02:55:10;;;;;;;;;46.25;38.50;;;;;;;;5046791;28;46589;-73
2022/03/28 02:57:36;;;;;;;;;45.25;39.25;;;;;;;;5036648;28;45394;-73
2022/03/28 03:00:04;;;;;;;;;50.50;41.75;;;;;;;;5038194;28;45332;-76
2022/03/28 03:02:29;;;;;;;;;42.25;35.00;;;;;;;;5039992;28;45371;-76
2022/03/28 03:04:54;;;;;;;;;49.25;39.00;;;;;;;;5039482;28;45465;-76
2022/03/28 03:07:19;;;;;;;;;48.00;39.00;;;;;;;;5039514;28;45467;-76
2022/03/28 03:09:44;;;;;;;;;48.50;39.75;;;;;;;;5038388;28;45268;-75
2022/03/28 03:12:10;;;;;;;;;50.50;39.00;;;;;;;;5036372;28;45410;-75
2022/03/28 03:14:35;;;;;;;;;51.75;40.50;;;;;;;;5039804;28;46218;-76
2022/03/28 03:17:02;;;;;;;;;53.50;41.75;;;;;;;;5039160;28;45309;-75
2022/03/28 03:19:27;;;;;;;;;57.25;42.75;;;;;;;;5038965;28;45276;-75
2022/03/28 03:21:52;;;;;;;;;52.00;42.75;;;;;;;;5039930;28;45432;-75
2022/03/28 03:24:18;;;;;;;;;55.00;43.50;;;;;;;;5035011;28;46302;-75
2022/03/28 03:26:43;;;;;;;;;57.00;43.50;;;;;;;;5038993;28;45273;-76
2022/03/28 03:29:08;;;;;;;;;57.00;44.00;;;;;;;;5039112;28;45623;-75
2022/03/28 03:31:34;;;;;;;;;59.50;46.00;;;;;;;;5039205;28;45545;-76
2022/03/28 03:33:59;;;;;;;;;52.00;39.75;;;;;;;;5039084;28;46161;-75
2022/03/28 03:36:25;;;;;;;;;57.75;43.50;;;;;;;;5039513;28;45638;-75
2022/03/28 03:38:52;;;;;;;;;53.50;43.00;;;;;;;;5039425;28;45341;-74
2022/03/28 03:41:18;;;;;;;;;55.00;43.50;;;;;;;;5038695;28;45590;-74
2022/03/28 03:43:44;;;;;;;;;53.50;42.50;;;;;;;;5038935;28;46993;-76
2022/03/28 03:46:09;;;;;;;;;59.50;47.00;;;;;;;;5038856;28;45540;-74
2022/03/28 03:48:34;;;;;;;;;54.00;44.00;;;;;;;;5035917;28;45502;-76
2022/03/28 03:50:59;;;;;;;;;56.00;44.00;;;;;;;;5038674;28;45490;-76
2022/03/28 03:53:25;;;;;;;;;52.75;43.25;;;;;;;;5046356;28;45497;-76
2022/03/28 03:55:50;;;;;;;;;57.00;46.25;;;;;;;;5041617;28;45455;-76
2022/03/28 03:58:15;;;;;;;;;55.50;43.50;;;;;;;;5041463;28;45304;-76
2022/03/28 04:00:40;;;;;;;;;52.00;43.00;;;;;;;;5035911;28;45419;-75
2022/03/28 04:03:06;;;;;;;;;55.00;44.50;;;;;;;;5036812;28;45702;-74
2022/03/28 04:05:32;;;;;;;;;49.75;40.25;;;;;;;;5039594;28;45427;-76
2022/03/28 04:07:59;;;;;;;;;60.00;46.00;;;;;;;;5044575;28;45452;-75
2022/03/28 04:10:24;;;;;;;;;58.00;46.75;;;;;;;;5045791;28;45518;-75
2022/03/28 04:12:49;;;;;;;;;54.75;44.75;;;;;;;;5037706;28;45905;-76
2022/03/28 04:15:15;;;;;;;;;57.25;44.75;;;;;;;;5035025;28;45329;-75
2022/03/28 04:17:41;;;;;;;;;59.25;45.75;;;;;;;;5039398;28;45486;-75
2022/03/28 04:20:06;;;;;;;;;53.25;43.00;;;;;;;;5040177;28;46710;-74
2022/03/28 04:22:31;;;;;;;;;55.75;45.50;;;;;;;;5037594;28;46887;-74
2022/03/28 04:24:57;;;;;;;;;59.00;44.25;;;;;;;;5037740;28;45459;-75
2022/03/28 04:27:22;;;;;;;;;52.75;43.50;;;;;;;;5024131;28;45559;-75
2022/03/28 04:29:47;;;;;;;;;60.00;46.00;;;;;;;;5040962;28;45530;-75
2022/03/28 04:32:12;;;;;;;;;51.75;42.00;;;;;;;;5033934;28;46105;-74
2022/03/28 04:34:38;;;;;;;;;58.75;47.00;;;;;;;;5035121;28;45634;-73
2022/03/28 04:37:03;;;;;;;;;61.50;46.00;;;;;;;;5036668;28;45474;-75
2022/03/28 04:39:28;;;;;;;;;62.25;50.75;;;;;;;;5032683;28;45613;-75
2022/03/28 04:41:54;;;;;;;;;58.75;45.75;;;;;;;;5039004;28;45497;-75
2022/03/28 04:44:19;;;;;;;;;62.50;48.25;;;;;;;;5039381;28;45539;-75
2022/03/28 04:46:44;;;;;;;;;57.00;45.75;;;;;;;;5033851;28;45614;-75
2022/03/28 04:49:13;;;;;;;;;58.75;46.50;;;;;;;;5034241;28;46714;-75
2022/03/28 04:51:38;;;;;;;;;62.25;49.50;;;;;;;;5038051;28;46459;-74
2022/03/28 04:54:03;;;;;;;;;62.25;51.25;;;;;;;;5033308;28;45460;-74
2022/03/28 04:56:28;;;;;;;;;61.50;46.75;;;;;;;;5043625;28;45518;-76
2022/03/28 04:58:54;;;;;;;;;62.50;48.00;;;;;;;;5039269;28;45585;-76
2022/03/28 05:01:19;;;;;;;;;59.75;47.50;;;;;;;;5032775;28;46077;-76
2022/03/28 05:03:44;;;;;;;;;62.50;47.25;;;;;;;;5031508;28;45414;-76
2022/03/28 05:06:10;;;;;;;;;61.00;47.00;;;;;;;;5030947;28;45566;-77
2022/03/28 05:08:36;;;;;;;;;63.75;49.00;;;;;;;;5035394;28;45581;-76
2022/03/28 05:11:01;;;;;;;;;65.25;49.25;;;;;;;;5032988;28;47464;-74
2022/03/28 05:13:27;;;;;;;;;63.75;51.25;;;;;;;;5038835;28;45751;-75
2022/03/28 05:15:52;;;;;;;;;63.75;49.25;;;;;;;;5038526;28;45513;-75
2022/03/28 05:18:18;;;;;;;;;64.25;50.00;;;;;;;;5044540;28;45456;-77
2022/03/28 05:20:43;;;;;;;;;65.25;50.25;;;;;;;;5039453;28;46567;-76
2022/03/28 05:23:08;;;;;;;;;66.00;51.00;;;;;;;;5040637;28;45497;-75
2022/03/28 05:25:33;;;;;;;;;62.00;48.00;;;;;;;;5023506;28;45662;-75
2022/03/28 05:27:59;;;;;;;;;65.25;49.75;;;;;;;;5041630;28;45532;-77
2022/03/28 05:30:24;;;;;;;;;64.00;47.00;;;;;;;;5038125;28;46502;-76
2022/03/28 05:32:49;;;;;;;;;57.75;44.50;;;;;;;;5043154;28;45491;-76
2022/03/28 05:35:16;;;;;;;;;60.00;43.25;;;;;;;;5041434;28;45538;-76
2022/03/28 05:37:42;;;;;;;;;62.25;48.00;;;;;;;;5039695;28;45651;-76
2022/03/28 05:40:10;;;;;;;;;61.50;48.50;;;;;;;;5036189;28;46274;-77
2022/03/28 05:42:35;;;;;;;;;63.50;50.00;;;;;;;;5040795;28;46376;-76
2022/03/28 05:45:00;;;;;;;;;56.50;43.75;;;;;;;;5036071;28;45494;-79
2022/03/28 05:47:25;;;;;;;;;60.00;46.00;;;;;;;;5035727;28;45577;-79
2022/03/28 05:49:51;;;;;;;;;58.00;45.50;;;;;;;;5035663;28;46371;-81
2022/03/28 05:52:16;;;;;;;;;65.00;49.25;;;;;;;;5031173;28;46309;-80
2022/03/28 05:54:41;;;;;;;;;69.33;52.33;;;;;;;;5030584;28;45617;-80
2022/03/28 05:57:06;;;;;;;;;70.33;52.00;;;;;;;;5036450;28;45587;-78
2022/03/28 05:59:32;;;;;;;;;58.75;45.25;;;;;;;;5044672;28;46374;-85
2022/03/28 06:01:58;;;;;;;;;57.00;45.50;;;;;;;;5042566;28;45533;-80
2022/03/28 06:04:23;;;;;;;;;58.25;45.50;;;;;;;;5037310;28;45478;-77
2022/03/28 06:06:49;;;;;;;;;65.00;51.00;;;;;;;;5039066;28;45513;-77
2022/03/28 06:09:14;;;;;;;;;62.75;49.00;;;;;;;;5035041;28;46128;-79
2022/03/28 06:11:39;;;;;;;;;63.75;50.25;;;;;;;;5037901;28;45489;-76
2022/03/28 06:14:04;;;;;;;;;59.50;46.50;;;;;;;;5038143;28;45523;-77
2022/03/28 06:16:30;;;;;;;;;62.75;48.75;;;;;;;;5038160;28;45506;-77
2022/03/28 06:18:58;;;;;;;;;61.75;46.50;;;;;;;;5036555;28;45606;-77
2022/03/28 06:21:24;;;;;;;;;59.50;47.50;;;;;;;;5035672;28;45203;-80
2022/03/28 06:23:55;;;;;;;;;62.25;46.75;;;;;;;;5036742;28;45322;-79
2022/03/28 06:26:20;;;;;;;;;61.25;47.75;;;;;;;;5036993;28;45596;-79
2022/03/28 06:28:46;;;;;;;;;62.25;48.50;;;;;;;;5041002;28;46041;-79
2022/03/28 06:31:12;;;;;;;;;60.00;45.75;;;;;;;;5035754;28;45521;-77
2022/03/28 06:33:37;;;;;;;;;64.00;48.00;;;;;;;;5039394;28;45579;-76
2022/03/28 06:36:03;;;;;;;;;65.50;50.25;;;;;;;;5035214;28;45441;-78
2022/03/28 06:38:32;;;;;;;;;69.00;55.00;;;;;;;;5035752;28;46387;-76
2022/03/28 06:41:00;;;;;;;;;64.25;50.00;;;;;;;;5037125;28;45390;-80
2022/03/28 06:43:25;;;;;;;;;64.50;49.25;;;;;;;;5037823;28;45422;-80
2022/03/28 06:45:53;;;;;;;;;62.40;47.80;;;;;;;;4915578;28;3493502;-81
2022/03/28 06:48:19;;;;;;;;;59.00;45.25;;;;;;;;5035601;28;46200;-79
2022/03/28 06:50:44;;;;;;;;;61.00;46.00;;;;;;;;5042113;28;45669;-83
2022/03/28 06:53:09;;;;;;;;;65.25;49.75;;;;;;;;5035213;28;46174;-82
2022/03/28 06:55:35;;;;;;;;;63.50;49.25;;;;;;;;5037945;28;46016;-80
2022/03/28 06:58:00;;;;;;;;;62.75;48.25;;;;;;;;5039227;28;45970;-82
2022/03/28 07:00:26;;;;;;;;;66.50;49.50;;;;;;;;5019708;28;45486;-82
2022/03/28 07:02:51;;;;;;;;;50.50;38.25;;;;;;;;5047670;28;45361;-81
2022/03/28 07:05:16;;;;;;;;;60.50;48.75;;;;;;;;5038145;28;45555;-81
2022/03/28 07:07:43;;;;;;;;;63.00;48.25;;;;;;;;5039041;28;47197;-80
2022/03/28 07:10:08;;;;;;;;;55.75;44.00;;;;;;;;5035787;28;45574;-81
2022/03/28 07:12:34;;;;;;;;;68.25;51.50;;;;;;;;5039520;28;45852;-82
2022/03/28 07:14:59;;;;;;;;;64.00;49.00;;;;;;;;5041421;28;45543;-83
2022/03/28 07:17:24;;;;;;;;;66.25;49.00;;;;;;;;5036030;28;46043;-80
2022/03/28 07:19:49;;;;;;;;;59.50;46.75;;;;;;;;5037831;28;45424;-79
2022/03/28 07:22:14;;;;;;;;;63.75;47.75;;;;;;;;5037800;28;45437;-78
2022/03/28 07:24:40;;;;;;;;;64.25;50.00;;;;;;;;5039837;28;45458;-80
2022/03/28 07:27:05;;;;;;;;;65.25;51.00;;;;;;;;5036855;28;46918;-81
2022/03/28 07:29:30;;;;;;;;;67.00;52.33;;;;;;;;5039623;28;45310;-80
2022/03/28 07:31:56;;;;;;;;;60.75;48.00;;;;;;;;5020380;28;45498;-79
2022/03/28 07:34:32;;;;;;;;;65.00;51.50;;;;;;;;5038237;28;45356;-79
2022/03/28 07:36:58;;;;;;;;;63.25;49.25;;;;;;;;5038247;28;46170;-79
2022/03/28 07:39:24;;;;;;;;;62.75;47.50;;;;;;;;5033266;28;45589;-80
2022/03/28 07:41:50;;;;;;;;;61.00;46.25;;;;;;;;5038535;28;45237;-79
2022/03/28 07:44:16;;;;;;;;;59.50;45.50;;;;;;;;5037652;28;45275;-80
2022/03/28 07:46:41;;;;;;;;;60.50;46.50;;;;;;;;5037534;28;46237;-79
2022/03/28 07:49:09;;;;;;;;;63.50;49.75;;;;;;;;5036887;28;45538;-78
2022/03/28 07:51:35;;;;;;;;;65.25;51.75;;;;;;;;5034765;28;45490;-78
2022/03/28 07:54:00;;;;;;;;;60.00;47.50;;;;;;;;5035394;28;45410;-80
2022/03/28 07:56:25;;;;;;;;;66.75;52.25;;;;;;;;5018927;28;47160;-78
2022/03/28 07:58:50;;;;;;;;;61.25;47.25;;;;;;;;5037146;28;45432;-78
2022/03/28 08:01:16;;;;;;;;;60.00;46.75;;;;;;;;5036891;28;45369;-79
2022/03/28 08:03:41;;;;;;;;;61.75;50.25;;;;;;;;5035323;28;45560;-79
2022/03/28 08:06:06;;;;;;;;;64.50;50.25;;;;;;;;5034600;28;46566;-78
2022/03/28 08:08:32;;;;;;;;;64.50;50.00;;;;;;;;5037010;28;45348;-79
2022/03/28 08:10:58;;;;;;;;;61.75;47.50;;;;;;;;5037223;28;45380;-80
2022/03/28 08:13:23;;;;;;;;;67.50;52.25;;;;;;;;5036463;28;45515;-79
2022/03/28 08:15:48;;;;;;;;;63.75;48.00;;;;;;;;5047530;28;45457;-79
2022/03/28 08:18:15;;;;;;;;;63.50;49.50;;;;;;;;5033651;28;45578;-79
2022/03/28 08:20:40;;;;;;;;;63.00;49.50;;;;;;;;5037014;28;45470;-80
2022/03/28 08:23:06;;;;;;;;;58.75;47.75;;;;;;;;5042135;28;45537;-79
2022/03/28 08:25:32;;;;;;;;;63.25;50.50;;;;;;;;5043158;28;46168;-78
2022/03/28 08:27:58;;;;;;;;;66.75;51.75;;;;;;;;5036522;28;45509;-78
2022/03/28 08:30:23;;;;;;;;;65.00;50.00;;;;;;;;5032736;28;45840;-79
2022/03/28 08:32:48;;;;;;;;;62.25;48.00;;;;;;;;5037195;28;45456;-79
2022/03/28 08:35:14;;;;;;;;;64.75;49.75;;;;;;;;5035943;28;46082;-79
2022/03/28 08:37:39;;;;;;;;;64.75;51.00;;;;;;;;5034487;28;45469;-79
2022/03/28 08:40:05;;;;;;;;;63.25;51.00;;;;;;;;5036768;28;45319;-77
2022/03/28 08:42:33;;;;;;;;;61.00;47.50;;;;;;;;5033077;28;45622;-78
2022/03/28 08:44:58;;;;;;;;;73.50;53.25;;;;;;;;5034695;28;46849;-77
2022/03/28 08:47:23;;;;;;;;;64.75;50.00;;;;;;;;5037672;28;45431;-78
2022/03/28 08:49:50;;;;;;;;;60.25;47.50;;;;;;;;5044476;28;45426;-77
2022/03/28 08:52:20;;;;;;;;;64.50;50.00;;;;;;;;5048629;28;45444;-85
2022/03/28 08:54:45;;;;;;;;;66.75;52.00;;;;;;;;5041765;28;45504;-85
2022/03/28 08:57:12;;;;;;;;;66.75;52.25;;;;;;;;5037983;28;45630;-87
2022/03/28 08:59:37;;;;;;;;;63.00;48.00;;;;;;;;5042276;28;46020;-85
2022/03/28 09:02:02;;;;;;;;;66.00;52.00;;;;;;;;5044387;28;45561;-85
2022/03/28 09:04:27;;;;;;;;;63.50;50.00;;;;;;;;5047112;28;46389;-85
2022/03/28 09:06:53;;;;;;;;;62.50;49.50;;;;;;;;5037156;28;45551;-84
2022/03/28 09:09:20;;;;;;;;;58.50;47.00;;;;;;;;5031227;28;45441;-85
2022/03/28 09:11:53;;;;;;;;;66.50;51.75;;;;;;;;5055584;28;45384;-84
2022/03/28 09:14:25;;;;;;;;;64.50;50.25;;;;;;;;5044684;28;47047;-84
2022/03/28 09:17:07;;;;;;;;;59.25;46.25;;;;;;;;5041064;28;45407;-84
2022/03/28 09:19:47;;;;;;;;;54.75;42.25;;;;;;;;5040495;28;45499;-86
2022/03/28 09:22:14;;;;;;;;;64.25;48.75;;;;;;;;5040826;28;45549;-84
2022/03/28 09:24:39;;;;;;;;;58.50;49.00;;;;;;;;5051418;28;46665;-85
2022/03/28 09:27:18;;;;;;;;;63.00;50.00;;;;;;;;5037935;28;45272;-84
2022/03/28 09:29:55;;;;;;;;;55.75;46.50;;;;;;;;5040463;28;45327;-84
2022/03/28 09:32:22;;;;;;;;;59.00;46.25;;;;;;;;5040206;28;46750;-83
2022/03/28 09:35:07;;;;;;;;;66.50;52.75;;;;;;;;5043408;28;45438;-84
2022/03/28 09:37:48;;;;;;;;;53.75;37.00;;;;;;;;5040667;28;45462;-84
2022/03/28 09:40:30;;;;;;;;;72.75;55.50;;;;;;;;5043345;28;45302;-83
2022/03/28 09:42:57;;;;;;;;;53.75;45.50;;;;;;;;5044849;28;45673;-84
2022/03/28 09:45:23;;;;;;;;;59.75;46.75;;;;;;;;5039004;28;45464;-84
2022/03/28 09:48:03;;;;;;;;;58.00;45.00;;;;;;;;5041166;28;45498;-84
2022/03/28 09:50:33;;;;;;;;;58.75;46.25;;;;;;;;5039863;28;45326;-84
2022/03/28 09:53:11;;;;;;;;;58.50;46.00;;;;;;;;5041929;28;45396;-83
2022/03/28 09:55:50;;;;;;;;;52.25;42.50;;;;;;;;5051178;28;46004;-84
2022/03/28 09:58:34;;;;;;;;;54.75;43.75;;;;;;;;5047759;28;45312;-85
2022/03/28 10:00:59;;;;;;;;;51.25;43.50;;;;;;;;5040681;28;45517;-83
2022/03/28 10:03:25;;;;;;;;;66.00;51.25;;;;;;;;5040130;28;45380;-79
2022/03/28 10:05:50;;;;;;;;;56.75;45.75;;;;;;;;5043582;28;46299;-77
2022/03/28 10:08:15;;;;;;;;;51.75;41.25;;;;;;;;5038450;28;45564;-76
2022/03/28 10:10:41;;;;;;;;;56.00;44.25;;;;;;;;5041520;28;45411;-78
2022/03/28 10:13:06;;;;;;;;;50.75;39.75;;;;;;;;5050276;28;45538;-75
2022/03/28 10:15:32;;;;;;;;;49.75;41.25;;;;;;;;5036241;28;45488;-78
2022/03/28 10:17:57;;;;;;;;;55.00;43.75;;;;;;;;5051621;28;45363;-76
2022/03/28 10:20:22;;;;;;;;;53.75;44.00;;;;;;;;5020096;28;45403;-76
2022/03/28 10:22:50;;;;;;;;;53.00;42.75;;;;;;;;5036526;28;45349;-78
2022/03/28 10:25:19;;;;;;;;;53.75;44.25;;;;;;;;5038185;28;46936;-76
2022/03/28 10:27:45;;;;;;;;;45.50;38.00;;;;;;;;5036455;28;45354;-77
2022/03/28 10:30:17;;;;;;;;;52.00;41.00;;;;;;;;5035424;28;45577;-76
2022/03/28 10:32:42;;;;;;;;;49.00;39.50;;;;;;;;5043279;28;45371;-78
2022/03/28 10:35:09;;;;;;;;;56.25;43.50;;;;;;;;5037959;28;46622;-78
2022/03/28 10:37:34;;;;;;;;;47.75;35.50;;;;;;;;5019759;28;45508;-78
2022/03/28 10:40:11;;;;;;;;;50.00;41.50;;;;;;;;5037203;28;45713;-78
2022/03/28 10:42:37;;;;;;;;;47.75;36.75;;;;;;;;5034715;28;45609;-78
2022/03/28 10:45:04;;;;;;;;;50.25;37.75;;;;;;;;5034400;28;45431;-77
2022/03/28 10:47:39;;;;;;;;;41.00;35.50;;;;;;;;5037935;28;45688;-79
2022/03/28 10:50:05;;;;;;;;;43.50;36.25;;;;;;;;5040564;28;45271;-80
2022/03/28 10:52:30;;;;;;;;;49.25;37.50;;;;;;;;5043629;28;45510;-81
2022/03/28 10:54:55;;;;;;;;;46.75;37.75;;;;;;;;5037563;28;46189;-80
2022/03/28 10:57:25;;;;;;;;;43.00;35.00;;;;;;;;5017303;28;45436;-81
2022/03/28 11:00:06;;;;;;;;;32.25;30.75;;;;;;;;5027305;28;45296;-78
2022/03/28 11:02:32;;;;;;;;;46.50;37.75;;;;;;;;5038066;28;45592;-80
2022/03/28 11:05:05;;;;;;;;;44.25;33.00;;;;;;;;5037020;28;45402;-80
2022/03/28 11:07:30;;;;;;;;;38.50;33.25;;;;;;;;5042616;28;45535;-79
2022/03/28 11:10:03;;;;;;;;;34.25;30.50;;;;;;;;5048583;28;45407;-80
2022/03/28 11:12:32;;;;;;;;;42.75;35.00;;;;;;;;5019617;28;45452;-79
2022/03/28 11:15:00;;;;;;;;;33.75;30.75;;;;;;;;5037068;28;46339;-79
2022/03/28 11:17:30;;;;;;;;;41.25;33.75;;;;;;;;5051855;28;45294;-82
2022/03/28 11:20:07;;;;;;;;;45.50;31.75;;;;;;;;5049786;28;45440;-85
2022/03/28 11:22:41;;;;;;;;;41.00;29.50;;;;;;;;5038567;28;45297;-84
2022/03/28 11:25:25;;;;;;;;;37.00;28.00;;;;;;;;5033602;28;46045;-89
2022/03/28 11:27:50;;;;;;;;;33.75;29.75;;;;;;;;5035851;28;45461;-87
2022/03/28 11:30:15;;;;;;;;;44.25;34.00;;;;;;;;5050226;28;45419;-85
2022/03/28 11:32:41;;;;;;;;;23.75;22.50;;;;;;;;5040054;28;45429;-89
2022/03/28 11:35:10;;;;;;;;;15.00;13.50;;;;;;;;5041325;28;46345;-88
2022/03/28 11:37:36;;;;;;;;;33.25;27.25;;;;;;;;5034322;28;44821;-85
2022/03/28 11:40:07;;;;;;;;;29.25;27.25;;;;;;;;5036746;28;45376;-86
2022/03/28 11:42:33;;;;;;;;;30.00;24.25;;;;;;;;5034518;28;45470;-89
2022/03/28 11:45:04;;;;;;;;;30.50;28.25;;;;;;;;5051201;28;46799;-90
2022/03/28 11:47:29;;;;;;;;;26.00;23.50;;;;;;;;5016827;28;45426;-87
2022/03/28 11:49:59;;;;;;;;;30.75;27.75;;;;;;;;5038487;28;45612;-86
2022/03/28 11:52:26;;;;;;;;;26.00;21.75;;;;;;;;5040572;28;45486;-81
2022/03/28 11:54:51;;;;;;;;;30.50;25.00;;;;;;;;5037553;28;47159;-81
2022/03/28 12:00:15;;;;;;;;;26.25;25.25;;;;;;;;5047524;28;45242;-81
2022/03/28 12:03:06;;;;;;;;;36.50;29.75;;;;;;;;5038066;28;45580;-86
2022/03/28 12:05:31;;;;;;;;;34.00;27.00;;;;;;;;5032311;28;46234;-79
2022/03/28 12:07:58;;;;;;;;;29.50;26.50;;;;;;;;5028675;28;45449;-80
2022/03/28 12:10:24;;;;;;;;;24.25;20.75;;;;;;;;5039472;28;47588;-81
2022/03/28 12:12:49;;;;;;;;;24.25;22.50;;;;;;;;5043011;28;45473;-80
2022/03/28 12:15:22;;;;;;;;;26.25;25.25;;;;;;;;5033010;28;46080;-79
2022/03/28 12:17:51;;;;;;;;;28.50;26.25;;;;;;;;5039601;28;45514;-77
2022/03/28 12:20:16;;;;;;;;;32.00;27.25;;;;;;;;5037119;28;45521;-79
2022/03/28 12:22:44;;;;;;;;;25.50;25.50;;;;;;;;5037262;28;45435;-80
2022/03/28 12:25:21;;;;;;;;;29.25;26.25;;;;;;;;5040909;28;46532;-79
2022/03/28 12:27:50;;;;;;;;;30.50;28.00;;;;;;;;5036822;28;45387;-82
2022/03/28 12:30:15;;;;;;;;;28.50;27.50;;;;;;;;5051774;28;45446;-80
2022/03/28 12:32:43;;;;;;;;;29.00;27.00;;;;;;;;5051140;28;45521;-86
2022/03/28 12:35:09;;;;;;;;;28.75;25.25;;;;;;;;5038536;28;45655;-83
2022/03/28 12:37:35;;;;;;;;;33.75;28.50;;;;;;;;5043650;28;45529;-85
2022/03/28 12:40:00;;;;;;;;;28.50;25.50;;;;;;;;5042566;28;45281;-84
2022/03/28 12:42:26;;;;;;;;;27.75;24.75;;;;;;;;5049980;28;45426;-77
2022/03/28 12:44:53;;;;;;;;;27.50;25.50;;;;;;;;5040598;28;46266;-82
2022/03/28 12:47:19;;;;;;;;;23.50;21.50;;;;;;;;5040398;28;45468;-83
2022/03/28 12:49:45;;;;;;;;;32.25;27.25;;;;;;;;5042826;28;45444;-88
2022/03/28 12:52:11;;;;;;;;;29.00;24.75;;;;;;;;5049573;28;45765;-82
2022/03/28 12:54:36;;;;;;;;;31.00;25.50;;;;;;;;5037213;28;47212;-83
2022/03/28 12:57:02;;;;;;;;;22.75;20.50;;;;;;;;5038764;28;45477;-83
2022/03/28 12:59:32;;;;;;;;;25.00;21.75;;;;;;;;5051751;28;45459;-83
2022/03/28 13:02:08;;;;;;;;;27.50;26.75;;;;;;;;5040340;28;45547;-82
2022/03/28 13:04:49;;;;;;;;;31.75;30.50;;;;;;;;5040826;28;46821;-82
2022/03/28 13:07:19;;;;;;;;;35.25;30.75;;;;;;;;5045414;28;45457;-80
2022/03/28 13:09:57;;;;;;;;;31.25;26.00;;;;;;;;5024554;28;45584;-78
2022/03/28 13:12:51;;;;;;;;;29.00;26.00;;;;;;;;5024167;28;45581;-81
2022/03/28 13:15:17;;;;;;;;;32.50;30.00;;;;;;;;5028906;28;45476;-81
2022/03/28 13:17:44;;;;;;;;;23.25;21.00;;;;;;;;5041080;28;45370;-81
2022/03/28 13:20:16;;;;;;;;;23.75;22.75;;;;;;;;5041449;28;45487;-82
2022/03/28 13:22:42;;;;;;;;;25.25;24.50;;;;;;;;5040038;28;45644;-82
2022/03/28 13:25:08;;;;;;;;;26.50;24.25;;;;;;;;5039308;28;47061;-82
2022/03/28 13:30:18;;;;;;;;;27.25;24.50;;;;;;;;5043533;28;45271;-85
2022/03/28 13:32:43;;;;;;;;;29.00;26.00;;;;;;;;5039878;28;45424;-83
2022/03/28 13:35:08;;;;;;;;;33.50;28.25;;;;;;;;5038598;28;47137;-82
2022/03/28 13:37:34;;;;;;;;;25.50;24.50;;;;;;;;5042566;28;45289;-82
2022/03/28 13:39:59;;;;;;;;;23.50;21.50;;;;;;;;5039104;28;45782;-81
2022/03/28 13:42:24;;;;;;;;;24.75;22.00;;;;;;;;5033639;28;45330;-80
2022/03/28 13:44:49;;;;;;;;;25.75;25.75;;;;;;;;5052875;28;46021;-82
2022/03/28 13:47:15;;;;;;;;;25.75;24.00;;;;;;;;5038617;28;46371;-81
2022/03/28 13:49:40;;;;;;;;;22.25;20.50;;;;;;;;5039385;28;45304;-83
2022/03/28 13:52:07;;;;;;;;;23.50;23.50;;;;;;;;5041440;28;45466;-89
2022/03/28 13:54:32;;;;;;;;;23.25;21.50;;;;;;;;5037666;28;47080;-89
2022/03/28 13:56:57;;;;;;;;;21.25;20.75;;;;;;;;5042769;28;45372;-90
2022/03/28 13:59:22;;;;;;;;;27.25;26.75;;;;;;;;5039529;28;45285;-89
2022/03/28 14:01:48;;;;;;;;;21.75;20.00;;;;;;;;5046463;28;45440;-88
2022/03/28 14:04:14;;;;;;;;;21.75;19.25;;;;;;;;5036872;28;46403;-88
2022/03/28 14:06:39;;;;;;;;;25.75;23.25;;;;;;;;5038308;28;45408;-87
2022/03/28 14:09:04;;;;;;;;;23.25;22.00;;;;;;;;5038293;28;45368;-89
2022/03/28 14:11:29;;;;;;;;;28.25;22.75;;;;;;;;5040386;28;45538;-89
2022/03/28 14:13:55;;;;;;;;;24.75;18.75;;;;;;;;5021799;28;46111;-88
2022/03/28 14:16:20;;;;;;;;;19.50;17.25;;;;;;;;5037099;28;45328;-90
2022/03/28 14:18:49;;;;;;;;;23.25;20.75;;;;;;;;5043391;28;45530;-82
2022/03/28 14:21:15;;;;;;;;;22.00;21.00;;;;;;;;5048744;28;45395;-88